createdAt,value
2023-03-31T00:05:00.168Z,8.20
2023-03-31T00:11:04.985Z,8.20
2023-03-31T00:17:07.302Z,8.30
2023-03-31T00:23:11.290Z,8.30
2023-03-31T00:29:14.450Z,8.40
2023-03-31T00:35:16.785Z,8.50
2023-03-31T00:41:19.250Z,8.50
2023-03-31T00:47:23.403Z,8.50
2023-03-31T00:53:30.575Z,8.60
2023-03-31T00:59:39.099Z,8.50
2023-03-31T01:05:48.126Z,8.50
2023-03-31T01:11:50.643Z,8.40
2023-03-31T01:17:56.337Z,8.40
2023-03-31T01:24:27.556Z,8.40
2023-03-31T01:30:36.532Z,8.40
2023-03-31T01:36:38.734Z,8.50
2023-03-31T01:42:49.928Z,8.50
2023-03-31T01:48:55.436Z,8.60
2023-03-31T01:55:24.694Z,8.60
2023-03-31T02:01:38.562Z,8.70
2023-03-31T02:07:50.508Z,8.80
2023-03-31T02:13:56.678Z,8.80
2023-03-31T02:20:06.088Z,8.80
2023-03-31T02:26:19.737Z,8.90
2023-03-31T02:32:27.946Z,8.90
2023-03-31T02:38:36.529Z,8.90
2023-03-31T02:44:40.783Z,8.90
2023-03-31T02:51:09.280Z,8.90
2023-03-31T02:57:22.987Z,8.90
2023-03-31T03:03:34.362Z,8.90
2023-03-31T03:09:59.908Z,8.90
2023-03-31T03:16:14.180Z,8.90
2023-03-31T03:22:16.380Z,8.90
2023-03-31T03:28:18.776Z,8.80
2023-03-31T03:34:21.170Z,8.80
2023-03-31T03:40:23.613Z,8.80
2023-03-31T03:46:26.016Z,8.90
2023-03-31T03:52:28.573Z,8.90
2023-03-31T03:58:30.932Z,8.90
2023-03-31T04:04:33.309Z,9.00
2023-03-31T04:10:36.752Z,9.00
2023-03-31T04:16:41.058Z,9.00
2023-03-31T04:22:47.501Z,9.10
2023-03-31T04:28:50.985Z,9.10
2023-03-31T04:35:03.044Z,9.00
2023-03-31T04:41:05.390Z,9.00
2023-03-31T04:47:07.557Z,9.00
2023-03-31T04:53:10.005Z,9.10
2023-03-31T04:59:12.374Z,9.20
2023-03-31T05:05:14.749Z,9.10
2023-03-31T05:11:17.305Z,9.10
2023-03-31T05:17:19.774Z,9.30
2023-03-31T05:23:22.575Z,9.60
2023-03-31T05:29:25.049Z,9.90
2023-03-31T05:35:27.336Z,10.00
2023-03-31T05:41:29.640Z,9.60
2023-03-31T05:47:32.741Z,9.00
2023-03-31T05:53:35.234Z,8.70
2023-03-31T05:59:38.648Z,8.60
2023-03-31T06:05:42.126Z,8.40
2023-03-31T06:11:44.403Z,8.30
2023-03-31T06:17:46.725Z,8.30
2023-03-31T06:23:49.317Z,8.30
2023-03-31T06:29:51.561Z,8.20
2023-03-31T06:35:57.532Z,8.00
2023-03-31T06:42:00.054Z,8.00
2023-03-31T06:48:03.936Z,7.80
2023-03-31T06:54:06.679Z,7.90
2023-03-31T07:00:10.025Z,8.20
2023-03-31T07:06:12.231Z,7.90
2023-03-31T07:12:14.578Z,7.80
2023-03-31T07:18:18.185Z,7.40
2023-03-31T07:24:20.916Z,7.40
2023-03-31T07:30:23.439Z,7.40
2023-03-31T07:36:25.819Z,7.40
2023-03-31T07:42:31.688Z,7.40
2023-03-31T07:48:34.083Z,7.30
2023-03-31T07:54:36.402Z,7.50
2023-03-31T08:00:38.695Z,7.60
2023-03-31T08:06:41.193Z,7.80
2023-03-31T08:12:43.927Z,8.10
2023-03-31T08:18:46.743Z,8.50
2023-03-31T08:24:48.935Z,9.20
2023-03-31T08:30:51.304Z,9.60
2023-03-31T08:36:53.855Z,10.10
2023-03-31T08:43:27.032Z,11.00
2023-03-31T08:49:36.830Z,12.80
2023-03-31T08:55:49.841Z,13.90
2023-03-31T09:02:10.068Z,15.60
2023-03-31T09:08:24.964Z,16.00
2023-03-31T09:14:27.497Z,16.60
2023-03-31T09:20:37.602Z,18.00
2023-03-31T09:26:47.136Z,21.10
2023-03-31T09:32:53.888Z,22.90
2023-03-31T09:38:56.723Z,21.50
2023-03-31T09:44:59.221Z,19.90
2023-03-31T09:51:08.607Z,18.80
2023-03-31T09:57:27.764Z,18.40
2023-03-31T10:03:37.316Z,18.40
2023-03-31T10:09:40.148Z,18.10
2023-03-31T10:15:42.928Z,17.80
2023-03-31T10:21:46.877Z,17.50
2023-03-31T10:27:53.383Z,16.80
2023-03-31T10:33:56.910Z,16.70
2023-03-31T10:40:13.262Z,16.60
2023-03-31T10:46:15.876Z,16.40
2023-03-31T10:52:25.081Z,16.50
2023-03-31T10:58:36.550Z,16.60
2023-03-31T11:04:42.185Z,17.20
2023-03-31T11:11:11.683Z,17.50
2023-03-31T11:17:45.330Z,17.40
2023-03-31T11:24:07.005Z,17.30
2023-03-31T11:30:44.978Z,17.20
2023-03-31T11:37:05.618Z,19.90
2023-03-31T11:43:14.605Z,22.60
2023-03-31T11:49:28.496Z,22.00
2023-03-31T11:55:32.834Z,23.60
2023-03-31T12:01:58.338Z,26.40
2023-03-31T12:08:08.889Z,26.90
2023-03-31T12:14:48.235Z,27.50
2023-03-31T12:21:01.186Z,27.10
2023-03-31T12:27:09.729Z,27.80
2023-03-31T12:33:22.151Z,26.90
2023-03-31T12:39:42.921Z,26.20
2023-03-31T12:46:07.185Z,22.50
2023-03-31T12:52:18.089Z,21.80
2023-03-31T12:58:25.202Z,20.40
2023-03-31T13:04:27.790Z,20.20
2023-03-31T13:10:32.231Z,22.70
2023-03-31T13:16:36.548Z,22.00
2023-03-31T13:22:52.533Z,23.70
2023-03-31T13:29:36.922Z,22.60
2023-03-31T13:35:43.068Z,25.40
2023-03-31T13:42:06.874Z,23.00
2023-03-31T13:48:24.192Z,22.00
2023-03-31T13:54:40.914Z,20.60
2023-03-31T14:01:06.262Z,20.20
2023-03-31T14:07:18.347Z,21.90
2023-03-31T14:13:25.744Z,21.30
2023-03-31T14:20:10.957Z,20.60
2023-03-31T14:26:50.344Z,20.40
2023-03-31T14:33:25.770Z,20.40
2023-03-31T14:39:32.605Z,20.20
2023-03-31T14:45:35.298Z,20.10
2023-03-31T14:51:38.441Z,20.20
2023-03-31T14:57:41.831Z,20.30
2023-03-31T15:03:45.400Z,20.40
2023-03-31T15:09:50.947Z,20.40
2023-03-31T15:15:53.641Z,20.20
2023-03-31T15:22:02.444Z,19.80
2023-03-31T15:28:08.496Z,19.50
2023-03-31T15:34:30.078Z,19.20
2023-03-31T15:40:44.247Z,19.20
2023-03-31T15:46:58.322Z,19.20
2023-03-31T15:53:01.764Z,19.30
2023-03-31T15:59:22.479Z,19.20
2023-03-31T16:05:54.375Z,19.10
2023-03-31T16:12:00.745Z,18.90
2023-03-31T16:18:17.379Z,18.50
2023-03-31T16:24:31.704Z,18.30
2023-03-31T16:30:37.706Z,18.00
2023-03-31T16:36:40.345Z,17.70
2023-03-31T16:42:42.496Z,17.50
2023-03-31T16:48:44.811Z,17.30
2023-03-31T16:54:47.195Z,17.10
2023-03-31T17:00:49.835Z,16.80
2023-03-31T17:06:52.945Z,16.70
2023-03-31T17:12:55.312Z,16.40
2023-03-31T17:18:57.819Z,16.20
2023-03-31T17:25:00.450Z,16.10
2023-03-31T17:31:02.837Z,15.90
2023-03-31T17:37:05.194Z,15.90
2023-03-31T17:43:07.650Z,15.70
2023-03-31T17:49:09.937Z,15.50
2023-03-31T17:55:13.096Z,15.30
2023-03-31T18:01:15.741Z,15.00
2023-03-31T18:07:23.720Z,14.70
2023-03-31T18:13:26.099Z,14.50
2023-03-31T18:19:28.783Z,14.30
2023-03-31T18:25:31.534Z,14.10
2023-03-31T18:31:34.196Z,14.00
2023-03-31T18:37:36.707Z,13.70
2023-03-31T18:43:39.416Z,13.40
2023-03-31T18:49:41.822Z,13.20
2023-03-31T18:55:44.840Z,12.80
2023-03-31T19:01:47.726Z,12.60
2023-03-31T19:07:50.214Z,12.30
2023-03-31T19:13:54.756Z,12.20
2023-03-31T19:19:57.223Z,12.20
2023-03-31T19:26:00.136Z,12.20
2023-03-31T19:32:03.696Z,12.20
2023-03-31T19:38:06.090Z,12.10
2023-03-31T19:44:08.989Z,12.00
2023-03-31T19:50:11.875Z,12.00
2023-03-31T19:56:17.770Z,12.00
2023-03-31T20:02:20.351Z,11.90
2023-03-31T20:08:23.112Z,11.80
2023-03-31T20:14:25.882Z,11.60
2023-03-31T20:20:28.082Z,11.50
2023-03-31T20:26:32.962Z,11.40
2023-03-31T20:32:36.073Z,11.20
2023-03-31T20:38:38.943Z,11.10
2023-03-31T20:44:41.497Z,11.00
2023-03-31T20:50:44.791Z,10.80
2023-03-31T20:56:47.576Z,10.70
2023-03-31T21:02:50.063Z,10.70
2023-03-31T21:08:54.300Z,10.60
2023-03-31T21:14:56.892Z,10.50
2023-03-31T21:21:02.001Z,10.30
2023-03-31T21:27:04.463Z,10.10
2023-03-31T21:33:06.931Z,10.10
2023-03-31T21:39:10.140Z,10.00
2023-03-31T21:45:12.923Z,10.00
2023-03-31T21:51:15.129Z,10.10
2023-03-31T21:57:17.571Z,10.00
2023-03-31T22:03:27.126Z,9.90
2023-03-31T22:09:30.468Z,9.80
2023-03-31T22:15:32.984Z,9.70
2023-03-31T22:21:35.575Z,9.70
2023-03-31T22:27:38.361Z,9.80
2023-03-31T22:33:40.727Z,9.70
2023-03-31T22:39:43.172Z,9.50
2023-03-31T22:45:45.720Z,9.50
2023-03-31T22:51:48.221Z,9.50
2023-03-31T22:57:53.296Z,9.50
2023-03-31T23:03:56.180Z,9.40
2023-03-31T23:09:58.470Z,9.50
2023-03-31T23:16:07.257Z,9.80
2023-03-31T23:22:09.963Z,9.80
2023-03-31T23:28:12.287Z,9.80
2023-03-31T23:34:14.962Z,9.70
2023-03-31T23:40:18.930Z,9.70
2023-03-31T23:46:22.045Z,9.70
2023-03-31T23:52:25.122Z,9.70
2023-03-31T23:58:27.354Z,9.70
